Strona główna
METAR-TAF:

METAR-TAF

Lotnisko :

Port lotniczy Gibraltar

Gibraltar, Gibraltar

Szerokość geograficzna: 36-09N, Długość geograficzna: 005-21W, wysokość: 5 m

Aktualna obserwacja pogody

Raport powstał 23 minut temu, godzina 08:20 UTC
Wiatr 6 kt od wschodnio-północny wschód
Temperatura 24°C
Wilgotność 74%
Ciśnienie 1017 hPa
Widzialność 10 km lub więcej
Brak chmur poniżej 1500 m i brak chmur cumulonimbus

METAR: LXGB 210820Z 06006KT CAVOK 24/19 Q1017 NOSIG RMK BLU BLU

czas: 10:43 (08:43 UTC)

Prognoza

Raport powstał 1 godzina i 12 minut temu, godzina 07:31 UTC
Prognoza ważna od 21 godzina 09 UTC do 21 godzina 18 UTC
Wiatr 10 kt od wschodnio-północny wschód
Widzialność 10 km lub więcej
Brak chmur poniżej 1500 m i brak chmur cumulonimbus

TAF: LXGB 210731Z 2109/2118 06010KT CAVOK

Obserwacja i prognoza pogody dla ponad 4000 lotnisk (raport METAR i TAF).

Dostępne stacje oznaczono żółtymi i czerwonymi punktami na mapie.

Najedź kursorem aby zobaczyć nazwę stacji.

Kliknij aby zobaczyć obserwacje i prognozy pogody.

Aby zmienić mapę: kliknij na zielony przycisk z czarnym krzyżykiem, aby powiększyć; na zielony przycisk z myślnikiem, aby pomniejszyć; na zielone strzałki, aby przejść do map sąsiednich.


METAR-TAF: